createdAt,value
2022-10-26T00:01:11.354Z,54.10
2022-10-26T00:06:11.931Z,53.90
2022-10-26T00:11:06.960Z,58.20
2022-10-26T00:16:02.265Z,66.90
2022-10-26T00:21:03.376Z,53.90
2022-10-26T00:25:58.672Z,69.70
2022-10-26T00:28:25.937Z,68.30
2022-10-26T00:30:52.836Z,69.80
2022-10-26T00:35:56.246Z,60.50
2022-10-26T00:40:51.129Z,57.00
2022-10-26T00:43:23.416Z,70.00
2022-10-26T00:45:53.456Z,54.00
2022-10-26T00:48:30.078Z,52.50
2022-10-26T00:51:00.059Z,54.00
2022-10-26T00:53:27.740Z,53.70
2022-10-26T00:55:54.747Z,69.00
2022-10-26T00:58:22.865Z,69.00
2022-10-26T01:00:50.990Z,69.10
2022-10-26T01:03:18.543Z,69.30
2022-10-26T01:05:47.676Z,54.00
2022-10-26T01:08:16.932Z,53.90
2022-10-26T01:13:12.764Z,53.90
2022-10-26T01:16:04.448Z,53.80
2022-10-26T01:18:53.074Z,52.70
2022-10-26T01:21:41.683Z,52.40
2022-10-26T01:24:34.235Z,52.50
2022-10-26T01:27:32.740Z,52.70
2022-10-26T01:30:19.252Z,52.50
2022-10-26T01:33:17.147Z,69.70
2022-10-26T01:36:12.813Z,69.60
2022-10-26T01:38:58.308Z,53.80
2022-10-26T01:42:00.309Z,69.60
2022-10-26T01:44:34.686Z,53.90
2022-10-26T01:47:03.253Z,57.10
2022-10-26T01:49:35.519Z,70.10
2022-10-26T01:57:02.659Z,53.60
2022-10-26T01:59:46.835Z,69.00
2022-10-26T02:02:49.532Z,69.60
2022-10-26T02:05:31.581Z,59.40
2022-10-26T02:10:44.063Z,52.30
2022-10-26T02:13:31.860Z,65.00
2022-10-26T02:16:30.340Z,69.10
2022-10-26T02:19:09.648Z,53.70
2022-10-26T02:21:41.563Z,53.80
2022-10-26T02:24:11.329Z,53.80
2022-10-26T02:26:40.893Z,53.40
2022-10-26T02:29:13.469Z,64.90
2022-10-26T02:31:42.033Z,53.40
2022-10-26T02:34:13.341Z,69.80
2022-10-26T02:36:44.992Z,69.00
2022-10-26T02:39:14.397Z,53.70
2022-10-26T02:41:43.195Z,53.60
2022-10-26T02:44:32.245Z,53.50
2022-10-26T02:46:59.684Z,69.30
2022-10-26T02:49:27.112Z,68.70
2022-10-26T02:52:04.998Z,53.50
2022-10-26T02:54:56.798Z,69.10
2022-10-26T02:57:40.509Z,52.10
2022-10-26T03:00:13.382Z,69.70
2022-10-26T03:02:48.564Z,53.40
2022-10-26T03:05:18.185Z,69.70
2022-10-26T03:10:12.567Z,68.90
2022-10-26T03:15:07.388Z,68.60
2022-10-26T03:20:01.365Z,68.70
2022-10-26T03:24:55.372Z,69.60
2022-10-26T03:32:17.481Z,58.00
2022-10-26T03:47:00.394Z,69.30
2022-10-26T03:51:54.438Z,69.60
2022-10-26T03:56:52.633Z,68.70
2022-10-26T04:01:52.695Z,70.00
2022-10-26T04:06:49.682Z,69.00
2022-10-26T04:14:11.030Z,69.10
2022-10-26T04:21:35.487Z,69.10
2022-10-26T04:28:57.170Z,69.30
2022-10-26T04:38:48.018Z,67.40
2022-10-26T04:41:14.913Z,69.40
2022-10-26T04:51:07.497Z,69.50
2022-10-26T05:00:56.958Z,56.40
2022-10-26T05:03:23.817Z,61.60
2022-10-26T05:05:50.827Z,70.00
2022-10-26T05:08:17.628Z,69.50
2022-10-26T05:10:49.886Z,53.80
2022-10-26T05:23:11.684Z,53.70
2022-10-26T05:28:09.713Z,68.70
2022-10-26T05:33:04.190Z,70.00
2022-10-26T05:35:32.281Z,53.40
2022-10-26T05:37:59.991Z,69.30
2022-10-26T05:43:00.589Z,54.00
2022-10-26T05:57:50.999Z,59.10
2022-10-26T06:00:22.323Z,53.90
2022-10-26T06:03:08.377Z,52.50
2022-10-26T06:05:44.738Z,53.80
2022-10-26T06:10:39.538Z,68.70
2022-10-26T06:13:06.979Z,68.80
2022-10-26T06:15:40.113Z,54.40
2022-10-26T06:18:24.824Z,52.90
2022-10-26T06:21:23.594Z,70.30
2022-10-26T06:24:16.041Z,53.00
2022-10-26T06:27:01.000Z,61.90
2022-10-26T06:29:43.616Z,69.10
2022-10-26T06:32:11.146Z,69.60
2022-10-26T06:34:44.433Z,69.90
2022-10-26T06:37:12.317Z,60.20
2022-10-26T06:39:47.024Z,53.70
2022-10-26T06:47:27.050Z,52.90
2022-10-26T06:49:57.791Z,54.20
2022-10-26T06:52:51.383Z,69.20
2022-10-26T06:57:46.295Z,69.30
2022-10-26T07:00:25.229Z,69.60
2022-10-26T07:05:20.873Z,63.10
2022-10-26T07:17:46.965Z,51.70
2022-10-26T07:20:15.424Z,53.00
2022-10-26T07:30:07.772Z,67.20
2022-10-26T08:02:02.588Z,66.10
2022-10-26T08:16:46.097Z,64.30
2022-10-26T08:19:12.911Z,63.50
2022-10-26T08:24:08.272Z,64.10
2022-10-26T08:26:35.220Z,54.30
2022-10-26T08:36:26.294Z,46.00
2022-10-26T08:38:53.418Z,54.20
2022-10-26T08:41:43.280Z,58.80
2022-10-26T08:44:40.349Z,44.40
2022-10-26T08:47:31.095Z,44.80
2022-10-26T08:50:25.526Z,44.10
2022-10-26T08:53:26.878Z,44.30
2022-10-26T08:55:59.567Z,45.30
2022-10-26T08:58:32.286Z,45.00
2022-10-26T09:00:59.430Z,60.80
2022-10-26T09:06:18.204Z,58.50
2022-10-26T09:08:50.798Z,42.60
2022-10-26T09:11:40.541Z,57.40
2022-10-26T09:14:36.204Z,41.80
2022-10-26T09:17:17.956Z,53.20
2022-10-26T09:19:59.381Z,41.30
2022-10-26T09:23:01.563Z,50.60
2022-10-26T09:25:38.366Z,56.00
2022-10-26T09:30:36.155Z,54.30
2022-10-26T09:33:16.817Z,40.40
2022-10-26T09:35:50.051Z,54.30
2022-10-26T09:38:43.083Z,48.30
2022-10-26T09:41:31.007Z,52.40
2022-10-26T09:44:20.176Z,35.00
2022-10-26T09:46:56.645Z,36.10
2022-10-26T09:49:33.014Z,35.80
2022-10-26T09:52:00.526Z,49.90
2022-10-26T09:57:00.029Z,40.70
2022-10-26T10:01:54.214Z,49.80
2022-10-26T10:04:22.945Z,50.10
2022-10-26T10:07:13.117Z,35.50
2022-10-26T10:12:20.544Z,49.90
2022-10-26T10:15:00.052Z,33.70
2022-10-26T10:17:27.001Z,46.40
2022-10-26T10:19:54.071Z,47.20
2022-10-26T10:22:25.172Z,45.60
2022-10-26T10:25:02.047Z,30.10
2022-10-26T10:27:31.008Z,45.20
2022-10-26T10:30:03.056Z,43.40
2022-10-26T10:32:35.689Z,42.70
2022-10-26T10:35:24.107Z,41.30
2022-10-26T10:37:51.881Z,41.60
2022-10-26T10:40:22.461Z,42.40
2022-10-26T10:42:52.307Z,34.60
2022-10-26T10:45:29.626Z,40.40
2022-10-26T10:48:20.978Z,41.90
2022-10-26T10:50:52.882Z,41.30
2022-10-26T10:53:41.885Z,28.90
2022-10-26T10:56:33.345Z,41.40
2022-10-26T11:01:38.527Z,31.40
2022-10-26T11:04:34.097Z,32.60
2022-10-26T11:07:04.707Z,33.90
2022-10-26T11:09:36.440Z,34.50
2022-10-26T11:12:10.213Z,35.50
2022-10-26T11:14:47.634Z,35.90
2022-10-26T11:17:19.530Z,37.30
2022-10-26T11:19:55.721Z,37.30
2022-10-26T11:22:34.954Z,51.70
2022-10-26T11:25:25.164Z,38.20
2022-10-26T11:28:24.003Z,38.80
2022-10-26T11:31:00.177Z,39.20
2022-10-26T11:33:33.959Z,52.50
2022-10-26T11:36:08.560Z,52.50
2022-10-26T11:38:56.754Z,52.60
2022-10-26T11:41:44.749Z,38.60
2022-10-26T11:44:18.880Z,38.90
2022-10-26T11:46:55.382Z,39.00
2022-10-26T11:49:52.260Z,36.90
2022-10-26T11:52:37.921Z,33.70
2022-10-26T11:55:05.138Z,44.90
2022-10-26T11:57:37.444Z,29.40
2022-10-26T12:02:36.932Z,26.90
2022-10-26T12:05:09.366Z,27.60
2022-10-26T12:07:40.100Z,38.50
2022-10-26T12:10:23.781Z,29.50
2022-10-26T12:13:02.623Z,29.30
2022-10-26T12:16:01.795Z,34.80
2022-10-26T12:19:01.001Z,28.20
2022-10-26T12:21:29.860Z,29.40
2022-10-26T12:26:23.816Z,32.10
2022-10-26T12:29:02.988Z,35.30
2022-10-26T12:31:32.920Z,37.30
2022-10-26T12:34:00.705Z,28.70
2022-10-26T12:36:50.148Z,34.40
2022-10-26T12:39:36.512Z,37.80
2022-10-26T12:42:06.373Z,27.20
2022-10-26T12:44:37.281Z,37.00
2022-10-26T12:47:05.272Z,36.20
2022-10-26T12:49:59.972Z,30.10
2022-10-26T12:52:34.015Z,25.00
2022-10-26T12:55:12.559Z,27.10
2022-10-26T12:58:01.942Z,30.70
2022-10-26T13:00:29.292Z,25.00
2022-10-26T13:03:23.752Z,28.50
2022-10-26T13:06:09.761Z,23.10
2022-10-26T13:11:47.198Z,23.40
2022-10-26T13:14:34.205Z,17.50
2022-10-26T13:17:02.340Z,24.00
2022-10-26T13:19:45.320Z,17.30
2022-10-26T13:22:19.233Z,19.70
2022-10-26T13:24:51.240Z,14.10
2022-10-26T13:27:18.092Z,14.40
2022-10-26T13:30:03.312Z,13.50
2022-10-26T13:32:36.462Z,18.20
2022-10-26T13:35:04.036Z,18.90
2022-10-26T13:37:33.621Z,12.40
2022-10-26T13:40:04.303Z,17.80
2022-10-26T13:42:45.605Z,18.10
2022-10-26T13:45:15.077Z,15.40
2022-10-26T13:47:44.847Z,11.80
2022-10-26T13:50:24.768Z,11.60
2022-10-26T13:53:20.262Z,12.10
2022-10-26T13:56:29.692Z,11.00
2022-10-26T13:59:10.228Z,17.70
2022-10-26T14:01:37.258Z,12.10
2022-10-26T14:04:18.178Z,13.00
2022-10-26T14:06:52.763Z,12.40
2022-10-26T14:09:20.865Z,18.60
2022-10-26T14:12:00.252Z,17.90
2022-10-26T14:14:33.499Z,12.70
2022-10-26T14:17:00.589Z,19.10
2022-10-26T14:19:29.844Z,20.60
2022-10-26T14:21:57.663Z,19.20
2022-10-26T14:24:45.842Z,13.60
2022-10-26T14:27:18.404Z,21.50
2022-10-26T14:32:22.889Z,15.50
2022-10-26T14:34:49.882Z,23.10
2022-10-26T14:37:30.241Z,16.70
2022-10-26T14:39:57.435Z,24.60
2022-10-26T14:42:32.315Z,25.10
2022-10-26T14:45:00.473Z,16.50
2022-10-26T14:47:30.738Z,25.00
2022-10-26T14:52:52.833Z,24.10
2022-10-26T14:57:49.542Z,25.10
2022-10-26T15:00:25.313Z,17.80
2022-10-26T15:02:56.834Z,19.50
2022-10-26T15:05:23.742Z,25.00
2022-10-26T15:07:52.236Z,24.70
2022-10-26T15:10:40.055Z,26.90
2022-10-26T15:13:21.426Z,26.60
2022-10-26T15:15:49.959Z,29.10
2022-10-26T15:18:23.869Z,29.10
2022-10-26T15:20:52.330Z,30.30
2022-10-26T15:23:21.250Z,29.90
2022-10-26T15:26:00.160Z,30.00
2022-10-26T15:28:43.327Z,28.80
2022-10-26T15:31:10.238Z,30.50
2022-10-26T15:33:39.611Z,29.40
2022-10-26T15:36:14.560Z,30.40
2022-10-26T15:38:42.568Z,31.20
2022-10-26T15:41:38.807Z,30.10
2022-10-26T15:44:14.511Z,29.30
2022-10-26T15:46:41.610Z,30.90
2022-10-26T15:49:15.646Z,29.90
2022-10-26T15:51:44.885Z,31.90
2022-10-26T15:54:11.747Z,31.40
2022-10-26T15:56:39.761Z,31.60
2022-10-26T15:59:15.508Z,43.50
2022-10-26T16:04:12.169Z,28.40
2022-10-26T16:06:41.245Z,30.90
2022-10-26T16:09:13.668Z,31.90
2022-10-26T16:11:40.494Z,32.80
2022-10-26T16:14:07.821Z,32.60
2022-10-26T16:16:34.693Z,33.60
2022-10-26T16:19:25.554Z,33.80
2022-10-26T16:21:51.336Z,50.90
2022-10-26T16:26:45.940Z,32.00
2022-10-26T16:29:12.758Z,34.30
2022-10-26T16:31:39.590Z,52.80
2022-10-26T16:34:06.545Z,35.90
2022-10-26T16:36:34.596Z,36.20
2022-10-26T16:41:30.066Z,39.70
2022-10-26T16:43:56.847Z,41.40
2022-10-26T16:46:24.539Z,50.60
2022-10-26T16:48:52.218Z,49.40
2022-10-26T16:51:24.816Z,34.00
2022-10-26T16:53:53.068Z,48.30
2022-10-26T16:56:23.167Z,34.50
2022-10-26T16:58:50.049Z,47.90
2022-10-26T17:01:18.946Z,39.60
2022-10-26T17:03:47.272Z,48.00
2022-10-26T17:06:14.641Z,49.20
2022-10-26T17:08:42.161Z,37.20
2022-10-26T17:11:11.667Z,50.00
2022-10-26T17:13:39.878Z,35.80
2022-10-26T17:16:18.567Z,43.70
2022-10-26T17:18:47.210Z,36.10
2022-10-26T17:21:16.753Z,36.50
2022-10-26T17:26:13.407Z,36.80
2022-10-26T17:28:40.469Z,50.20
2022-10-26T17:31:10.405Z,37.10
2022-10-26T17:33:38.842Z,37.70
2022-10-26T17:36:07.146Z,38.50
2022-10-26T17:38:36.525Z,38.00
2022-10-26T17:41:08.667Z,52.20
2022-10-26T17:43:37.596Z,38.30
2022-10-26T17:46:06.910Z,38.50
2022-10-26T17:48:33.740Z,53.30
2022-10-26T17:51:06.744Z,38.60
2022-10-26T17:56:12.801Z,39.00
2022-10-26T18:01:10.512Z,52.70
2022-10-26T18:03:39.213Z,53.10
2022-10-26T18:06:10.474Z,53.10
2022-10-26T18:08:38.100Z,54.70
2022-10-26T18:11:06.981Z,54.00
2022-10-26T18:13:34.356Z,40.20
2022-10-26T18:16:11.956Z,40.20
2022-10-26T18:18:40.056Z,55.90
2022-10-26T18:21:11.877Z,40.50
2022-10-26T18:26:11.400Z,41.10
2022-10-26T18:28:40.716Z,55.80
2022-10-26T18:31:09.275Z,55.70
2022-10-26T18:38:31.731Z,56.00
2022-10-26T18:40:59.374Z,41.70
2022-10-26T18:43:27.373Z,41.80
2022-10-26T18:46:04.191Z,57.40
2022-10-26T18:48:31.379Z,57.00
2022-10-26T18:51:05.787Z,42.00
2022-10-26T18:53:34.007Z,57.20
2022-10-26T18:56:03.077Z,42.10
2022-10-26T18:58:34.473Z,41.90
2022-10-26T19:01:05.496Z,41.70
2022-10-26T19:03:32.483Z,57.80
2022-10-26T19:16:12.629Z,43.10
2022-10-26T19:21:21.477Z,43.00
2022-10-26T19:23:53.733Z,58.30
2022-10-26T19:26:24.114Z,43.10
2022-10-26T19:28:58.022Z,42.70
2022-10-26T19:31:27.349Z,43.20
2022-10-26T19:38:50.708Z,46.00
2022-10-26T19:41:17.906Z,58.60
2022-10-26T19:43:45.441Z,45.60
2022-10-26T19:46:21.281Z,43.60
2022-10-26T19:48:49.883Z,59.00
2022-10-26T19:56:13.439Z,44.70
2022-10-26T19:58:41.760Z,51.30
2022-10-26T20:01:09.773Z,60.50
2022-10-26T20:06:08.130Z,60.90
2022-10-26T20:08:38.511Z,45.30
2022-10-26T20:11:09.002Z,60.30
2022-10-26T20:13:39.700Z,45.40
2022-10-26T20:16:09.478Z,49.70
2022-10-26T20:21:16.659Z,60.60
2022-10-26T20:26:18.774Z,61.80
2022-10-26T20:31:14.287Z,60.50
2022-10-26T20:33:41.226Z,60.90
2022-10-26T20:36:08.548Z,61.70
2022-10-26T20:38:36.460Z,45.40
2022-10-26T20:41:06.316Z,49.80
2022-10-26T20:43:39.395Z,55.90
2022-10-26T20:46:07.698Z,45.30
2022-10-26T20:51:15.132Z,50.00
2022-10-26T20:54:14.109Z,46.20
2022-10-26T20:56:42.918Z,62.90
2022-10-26T20:59:31.709Z,46.30
2022-10-26T21:01:58.581Z,62.10
2022-10-26T21:04:25.532Z,61.90
2022-10-26T21:14:17.715Z,61.90
2022-10-26T21:21:39.241Z,54.80
2022-10-26T21:29:00.749Z,61.30
2022-10-26T21:31:27.731Z,63.10
2022-10-26T21:36:22.120Z,55.50
2022-10-26T21:41:21.044Z,50.50
2022-10-26T21:43:51.386Z,47.50
2022-10-26T21:48:47.941Z,63.50
2022-10-26T21:51:17.537Z,48.40
2022-10-26T21:56:17.645Z,48.20
2022-10-26T22:01:17.928Z,47.50
2022-10-26T22:03:45.401Z,64.30
2022-10-26T22:06:14.941Z,48.70
2022-10-26T22:11:18.148Z,47.80
2022-10-26T22:16:20.197Z,49.90
2022-10-26T22:18:48.273Z,58.70
2022-10-26T22:21:17.234Z,48.90
2022-10-26T22:23:44.976Z,64.10
2022-10-26T22:26:17.801Z,48.80
2022-10-26T22:28:46.609Z,48.70
2022-10-26T22:31:19.749Z,48.10
2022-10-26T22:33:51.064Z,55.30
2022-10-26T22:38:45.395Z,63.90
2022-10-26T22:41:12.263Z,64.70
2022-10-26T22:46:21.223Z,64.40
2022-10-26T22:48:53.003Z,65.60
2022-10-26T22:51:21.722Z,49.70
2022-10-26T22:53:59.716Z,65.20
2022-10-26T22:56:27.889Z,49.10
2022-10-26T23:01:25.190Z,61.80
2022-10-26T23:03:53.144Z,49.50
2022-10-26T23:06:20.476Z,65.40
2022-10-26T23:08:47.379Z,56.60
2022-10-26T23:11:17.322Z,49.60
2022-10-26T23:16:15.437Z,49.80
2022-10-26T23:21:11.205Z,49.30
2022-10-26T23:23:38.521Z,50.20
2022-10-26T23:26:08.575Z,50.10
2022-10-26T23:28:36.169Z,66.00
2022-10-26T23:33:31.189Z,66.20
2022-10-26T23:35:58.668Z,64.70
2022-10-26T23:38:25.974Z,66.00
2022-10-26T23:40:57.805Z,50.50
2022-10-26T23:43:26.095Z,50.40
2022-10-26T23:45:53.920Z,52.10
2022-10-26T23:50:49.843Z,52.50
2022-10-26T23:53:19.593Z,66.00
2022-10-26T23:55:46.813Z,54.60
2022-10-26T23:58:15.092Z,59.00
